< Typhoon 195418 1954 Season Typhoon 195420 >
Typhoon 195419 (PAMELA)
General InformationTrack Information on Google Maps || Disaster Info.ResourceGoogle EarthGE AnimationAtom FeedGeoJSON
Detalied Best Track (Time Zone = UTC)
Year Month Day Hour Lat. Long. Pressure (hPa) Wind (kt) Class Image Chart
1954 10 26 18 10.6 141.4 1006 0 2 -- Chart
1954 10 27 00 11.0 140.2 1006 0 2 -- Chart
1954 10 27 06 11.2 139.2 1006 0 2 -- Chart
1954 10 27 12 11.4 138.2 1006 0 2 -- Chart
1954 10 27 18 11.5 137.8 1004 0 2 -- Chart
1954 10 28 00 11.8 137.5 1002 0 2 -- Chart
1954 10 28 06 12.0 137.2 1002 0 2 -- Chart
1954 10 28 12 12.3 137.0 1002 0 2 -- Chart
1954 10 28 18 12.7 136.7 1002 0 2 -- Chart
1954 10 29 00 12.9 136.3 1000 0 9 -- Chart
1954 10 29 06 12.9 135.0 998 0 9 -- Chart
1954 10 29 12 13.2 134.2 998 0 9 -- Chart
1954 10 29 18 13.4 133.7 994 0 9 -- Chart
1954 10 30 00 13.8 133.3 992 0 9 -- Chart
1954 10 30 06 14.0 133.0 984 0 9 -- Chart
1954 10 30 12 14.2 132.8 970 0 9 -- Chart
1954 10 30 18 14.4 132.6 965 0 9 -- Chart
1954 10 31 00 14.7 132.2 960 0 9 -- Chart
1954 10 31 06 15.0 131.5 960 0 9 -- Chart
1954 10 31 12 15.4 131.0 960 0 9 -- Chart
1954 10 31 18 15.7 130.6 960 0 9 -- Chart
1954 11 1 00 16.3 130.2 960 0 9 -- Chart
1954 11 1 06 16.7 129.7 960 0 9 -- Chart
1954 11 1 12 17.0 129.5 960 0 9 -- Chart
1954 11 1 18 17.2 129.6 920 0 9 -- Chart
1954 11 2 00 17.3 129.6 905 0 9 -- Chart
1954 11 2 06 17.5 129.5 900 0 9 -- Chart
1954 11 2 12 17.9 129.3 900 0 9 -- Chart
1954 11 2 18 17.9 128.7 900 0 9 -- Chart
1954 11 3 00 18.0 128.2 920 0 9 -- Chart
1954 11 3 06 18.2 127.6 920 0 9 -- Chart
1954 11 3 12 18.7 127.3 920 0 9 -- Chart
1954 11 3 18 18.8 126.8 920 0 9 -- Chart
1954 11 4 00 19.0 125.8 920 0 9 -- Chart
1954 11 4 06 19.1 124.0 925 0 9 -- Chart
1954 11 4 12 19.3 122.1 925 0 9 -- Chart
1954 11 4 18 19.4 120.9 930 0 9 -- Chart
1954 11 5 00 19.8 119.5 940 0 9 -- Chart
1954 11 5 06 20.2 118.2 945 0 9 -- Chart
1954 11 5 12 20.3 116.9 945 0 9 -- Chart
1954 11 5 18 20.9 116.0 950 0 9 -- Chart
1954 11 6 00 21.3 114.7 955 0 9 -- Chart
1954 11 6 06 21.5 113.7 960 0 9 -- Chart
1954 11 6 12 21.6 112.4 960 0 9 -- Chart
1954 11 6 18 21.6 111.3 970 0 9 -- Chart
1954 11 7 00 21.7 110.0 980 0 9 -- Chart
1954 11 7 06 21.8 108.9 980 0 9 -- Chart
Japan Meteorological Agency Best Track Data | Correction Date : 1989-06-01
< Typhoon 195418 1954 Season Typhoon 195420 >

Help